createdAt,value
2022-09-18T00:01:32.169Z,5.20
2022-09-18T00:03:36.711Z,5.78
2022-09-18T00:05:44.224Z,5.93
2022-09-18T00:07:50.945Z,4.88
2022-09-18T00:09:55.294Z,5.07
2022-09-18T00:12:02.164Z,5.53
2022-09-18T00:14:08.848Z,6.60
2022-09-18T00:16:15.292Z,8.27
2022-09-18T00:18:27.012Z,7.20
2022-09-18T00:20:34.538Z,8.30
2022-09-18T00:22:42.396Z,5.18
2022-09-18T00:24:49.483Z,4.45
2022-09-18T00:26:55.918Z,6.15
2022-09-18T00:29:00.482Z,7.75
2022-09-18T00:31:21.557Z,5.63
2022-09-18T00:33:36.689Z,5.25
2022-09-18T00:35:47.403Z,4.82
2022-09-18T00:37:56.539Z,4.15
2022-09-18T00:40:01.302Z,3.85
2022-09-18T00:42:15.070Z,6.32
2022-09-18T00:44:47.251Z,7.32
2022-09-18T00:47:16.602Z,6.05
2022-09-18T00:49:24.695Z,3.78
2022-09-18T00:51:33.818Z,5.30
2022-09-18T00:53:41.867Z,3.35
2022-09-18T00:55:48.032Z,5.88
2022-09-18T00:57:58.305Z,4.80
2022-09-18T01:00:16.853Z,3.83
2022-09-18T01:02:34.179Z,4.43
2022-09-18T01:04:41.316Z,6.47
2022-09-18T01:07:26.311Z,3.92
2022-09-18T01:09:56.592Z,6.13
2022-09-18T01:12:48.310Z,4.05
2022-09-18T01:15:26.059Z,9.57
2022-09-18T01:18:07.267Z,3.25
2022-09-18T01:21:03.696Z,5.10
2022-09-18T01:23:50.951Z,2.97
2022-09-18T01:26:43.671Z,3.75
2022-09-18T01:29:06.874Z,3.45
2022-09-18T01:31:36.004Z,5.05
2022-09-18T01:33:54.142Z,4.13
2022-09-18T01:36:00.470Z,4.13
2022-09-18T01:38:15.360Z,3.55
2022-09-18T01:40:29.301Z,8.35
2022-09-18T01:42:36.270Z,3.10
2022-09-18T01:44:42.708Z,4.30
2022-09-18T01:46:47.394Z,2.95
2022-09-18T01:49:14.808Z,6.88
2022-09-18T01:51:30.214Z,3.80
2022-09-18T01:53:38.257Z,6.72
2022-09-18T01:55:43.869Z,9.48
2022-09-18T01:58:14.290Z,6.20
2022-09-18T02:00:20.100Z,6.35
2022-09-18T02:02:39.398Z,3.92
2022-09-18T02:04:46.356Z,5.60
2022-09-18T02:07:45.116Z,9.52
2022-09-18T02:10:01.336Z,7.78
2022-09-18T02:12:18.995Z,5.50
2022-09-18T02:14:50.077Z,6.57
2022-09-18T02:17:19.392Z,4.28
2022-09-18T02:19:37.588Z,5.30
2022-09-18T02:21:43.814Z,4.53
2022-09-18T02:23:49.957Z,4.15
2022-09-18T02:25:56.143Z,6.45
2022-09-18T02:28:00.470Z,5.72
2022-09-18T02:30:06.906Z,8.27
2022-09-18T02:32:17.970Z,6.15
2022-09-18T02:34:24.928Z,7.47
2022-09-18T02:36:55.337Z,9.00
2022-09-18T02:39:37.904Z,5.25
2022-09-18T02:42:11.936Z,5.88
2022-09-18T02:44:52.049Z,6.95
2022-09-18T02:47:31.914Z,8.80
2022-09-18T02:50:01.179Z,6.00
2022-09-18T02:52:23.622Z,6.05
2022-09-18T02:55:10.167Z,5.68
2022-09-18T02:57:50.151Z,8.55
2022-09-18T02:59:58.299Z,6.25
2022-09-18T03:02:16.678Z,5.97
2022-09-18T03:04:33.986Z,6.35
2022-09-18T03:06:41.005Z,5.95
2022-09-18T03:08:49.418Z,6.18
2022-09-18T03:10:55.570Z,6.65
2022-09-18T03:13:04.801Z,6.72
2022-09-18T03:15:18.776Z,7.47
2022-09-18T03:17:24.385Z,6.40
2022-09-18T03:19:39.017Z,6.35
2022-09-18T03:21:49.459Z,6.63
2022-09-18T03:23:55.951Z,6.20
2022-09-18T03:26:05.868Z,9.15
2022-09-18T03:28:13.371Z,6.60
2022-09-18T03:30:21.498Z,6.53
2022-09-18T03:32:26.280Z,6.93
2022-09-18T03:34:33.259Z,7.30
2022-09-18T03:36:40.940Z,7.38
2022-09-18T03:38:47.010Z,5.70
2022-09-18T03:40:53.718Z,5.30
2022-09-18T03:43:15.003Z,6.82
2022-09-18T03:45:23.342Z,5.70
2022-09-18T03:47:50.561Z,5.57
2022-09-18T03:50:01.444Z,4.75
2022-09-18T03:52:09.619Z,4.35
2022-09-18T03:54:22.990Z,4.07
2022-09-18T03:56:50.135Z,4.15
2022-09-18T03:59:14.715Z,4.63
2022-09-18T04:01:41.761Z,5.68
2022-09-18T04:04:00.425Z,4.30
2022-09-18T04:06:26.743Z,4.93
2022-09-18T04:08:53.177Z,3.65
2022-09-18T04:11:11.534Z,5.30
2022-09-18T04:13:17.425Z,5.13
2022-09-18T04:15:22.071Z,6.22
2022-09-18T04:17:26.801Z,6.82
2022-09-18T04:19:30.906Z,4.30
2022-09-18T04:21:37.011Z,4.47
2022-09-18T04:23:43.734Z,4.93
2022-09-18T04:25:52.127Z,5.60
2022-09-18T04:27:58.352Z,6.00
2022-09-18T04:30:05.354Z,4.00
2022-09-18T04:32:11.736Z,3.58
2022-09-18T04:34:19.017Z,3.53
2022-09-18T04:36:24.553Z,4.03
2022-09-18T04:38:30.162Z,7.07
2022-09-18T04:40:34.829Z,4.15
2022-09-18T04:42:43.963Z,3.92
2022-09-18T04:44:48.198Z,4.32
2022-09-18T04:46:55.220Z,4.78
2022-09-18T04:49:00.037Z,7.15
2022-09-18T04:51:06.909Z,4.60
2022-09-18T04:53:31.834Z,5.70
2022-09-18T04:55:45.574Z,5.70
2022-09-18T04:58:00.200Z,6.22
2022-09-18T05:00:10.411Z,3.60
2022-09-18T05:02:17.199Z,3.55
2022-09-18T05:04:22.454Z,2.83
2022-09-18T05:06:42.103Z,2.55
2022-09-18T05:08:48.953Z,2.47
2022-09-18T05:10:53.355Z,2.55
2022-09-18T05:13:00.261Z,2.88
2022-09-18T05:15:08.170Z,4.25
2022-09-18T05:17:17.218Z,4.25
2022-09-18T05:19:37.450Z,4.32
2022-09-18T05:21:51.423Z,3.17
2022-09-18T05:23:57.870Z,4.45
2022-09-18T05:26:06.346Z,7.13
2022-09-18T05:28:16.510Z,5.00
2022-09-18T05:30:23.304Z,3.70
2022-09-18T05:32:31.418Z,5.97
2022-09-18T05:34:36.274Z,3.67
2022-09-18T05:36:40.709Z,4.20
2022-09-18T05:38:47.496Z,3.95
2022-09-18T05:40:53.827Z,4.47
2022-09-18T05:43:01.289Z,4.40
2022-09-18T05:45:07.810Z,3.45
2022-09-18T05:47:15.329Z,3.00
2022-09-18T05:49:19.881Z,4.32
2022-09-18T05:51:24.707Z,3.85
2022-09-18T05:53:29.008Z,4.18
2022-09-18T05:55:42.002Z,3.80
2022-09-18T05:57:46.412Z,3.80
2022-09-18T05:59:56.918Z,2.72
2022-09-18T06:02:11.308Z,3.17
2022-09-18T06:06:48.812Z,2.80
2022-09-18T06:08:54.854Z,3.35
2022-09-18T06:11:05.938Z,5.13
2022-09-18T06:13:14.844Z,4.35
2022-09-18T06:15:22.059Z,7.47
2022-09-18T06:17:27.248Z,4.30
2022-09-18T06:19:35.686Z,2.60
2022-09-18T06:21:41.696Z,2.70
2022-09-18T06:23:52.475Z,5.22
2022-09-18T06:26:15.009Z,5.50
2022-09-18T06:28:20.566Z,4.85
2022-09-18T06:30:27.340Z,5.82
2022-09-18T06:32:32.689Z,3.63
2022-09-18T06:34:38.844Z,2.70
2022-09-18T06:36:45.406Z,2.78
2022-09-18T06:39:11.573Z,4.95
2022-09-18T06:41:16.360Z,5.45
2022-09-18T06:43:26.783Z,6.22
2022-09-18T06:45:45.641Z,5.25
2022-09-18T06:47:50.353Z,5.13
2022-09-18T06:49:58.127Z,7.07
2022-09-18T06:52:08.905Z,7.47
2022-09-18T06:54:14.964Z,6.13
2022-09-18T06:56:19.874Z,4.90
2022-09-18T06:58:27.523Z,4.93
2022-09-18T07:00:34.646Z,5.93
2022-09-18T07:02:43.164Z,5.30
2022-09-18T07:05:01.826Z,3.45
2022-09-18T07:07:10.300Z,3.45
2022-09-18T07:09:19.894Z,3.63
2022-09-18T07:13:42.819Z,5.75
2022-09-18T07:15:52.555Z,6.00
2022-09-18T07:18:00.026Z,6.38
2022-09-18T07:20:06.907Z,4.93
2022-09-18T07:22:18.115Z,3.97
2022-09-18T07:24:26.935Z,5.53
2022-09-18T07:26:31.959Z,4.72
2022-09-18T07:28:41.227Z,3.33
2022-09-18T07:31:04.314Z,3.85
2022-09-18T07:33:13.199Z,3.55
2022-09-18T07:35:25.611Z,3.47
2022-09-18T07:37:35.702Z,3.45
2022-09-18T07:39:54.269Z,4.55
2022-09-18T07:42:24.883Z,4.22
2022-09-18T07:46:40.719Z,3.60
2022-09-18T07:48:51.093Z,3.33
2022-09-18T07:51:05.911Z,3.03
2022-09-18T07:53:15.321Z,2.40
2022-09-18T07:55:24.258Z,3.85
2022-09-18T07:57:32.252Z,3.25
2022-09-18T07:59:58.051Z,2.60
2022-09-18T08:02:06.815Z,2.50
2022-09-18T08:04:14.699Z,3.72
2022-09-18T08:06:32.116Z,1.98
2022-09-18T08:08:54.304Z,2.65
2022-09-18T08:11:21.560Z,2.83
2022-09-18T08:13:35.155Z,2.70
2022-09-18T08:21:12.554Z,1.83
2022-09-18T08:23:20.885Z,1.77
2022-09-18T08:25:25.225Z,1.83
2022-09-18T08:27:31.959Z,3.47
2022-09-18T08:29:36.725Z,3.83
2022-09-18T08:31:46.793Z,1.60
2022-09-18T08:33:53.716Z,1.40
2022-09-18T08:36:00.992Z,1.98
2022-09-18T08:38:13.302Z,1.88
2022-09-18T08:41:09.198Z,4.30
2022-09-18T08:43:54.607Z,4.82
2022-09-18T08:46:18.951Z,2.78
2022-09-18T08:48:30.506Z,2.67
2022-09-18T08:50:38.663Z,3.17
2022-09-18T08:52:51.135Z,4.03
2022-09-18T08:55:24.962Z,2.60
2022-09-18T08:57:51.134Z,4.22
2022-09-18T09:00:56.479Z,2.78
2022-09-18T09:03:36.165Z,2.63
2022-09-18T09:05:46.610Z,2.00
2022-09-18T09:08:18.910Z,4.35
2022-09-18T09:11:05.353Z,2.00
2022-09-18T09:13:44.828Z,2.97
2022-09-18T09:16:12.811Z,4.72
2022-09-18T09:18:21.170Z,10.88
2022-09-18T09:20:37.191Z,3.60
2022-09-18T09:23:00.666Z,3.20
2022-09-18T09:25:21.147Z,4.03
2022-09-18T09:27:49.858Z,5.57
2022-09-18T09:30:33.717Z,4.78
2022-09-18T09:33:23.430Z,6.03
2022-09-18T09:35:51.919Z,4.32
2022-09-18T09:38:06.541Z,5.70
2022-09-18T09:40:25.256Z,5.03
2022-09-18T09:42:43.608Z,3.13
2022-09-18T09:45:31.165Z,3.50
2022-09-18T09:48:02.761Z,2.70
2022-09-18T09:50:41.845Z,3.30
2022-09-18T09:52:48.672Z,2.65
2022-09-18T09:55:17.705Z,3.55
2022-09-18T09:57:41.456Z,4.00
2022-09-18T10:00:02.477Z,3.25
2022-09-18T10:02:34.039Z,3.63
2022-09-18T10:05:06.425Z,3.05
2022-09-18T10:07:33.509Z,5.35
2022-09-18T10:10:04.079Z,2.50
2022-09-18T10:12:55.035Z,4.97
2022-09-18T10:15:25.183Z,3.83
2022-09-18T10:17:31.621Z,2.03
2022-09-18T10:19:42.067Z,4.43
2022-09-18T10:21:46.790Z,4.90
2022-09-18T10:23:59.350Z,3.55
2022-09-18T10:26:07.502Z,3.53
2022-09-18T10:28:15.571Z,4.40
2022-09-18T10:30:21.518Z,2.50
2022-09-18T10:32:48.434Z,3.55
2022-09-18T10:35:42.311Z,2.70
2022-09-18T10:37:48.472Z,4.07
2022-09-18T10:40:02.846Z,3.78
2022-09-18T10:42:17.602Z,2.60
2022-09-18T10:44:31.670Z,3.03
2022-09-18T10:46:52.668Z,4.53
2022-09-18T10:49:04.342Z,6.93
2022-09-18T10:51:10.042Z,6.03
2022-09-18T10:53:39.712Z,6.50
2022-09-18T10:56:03.242Z,3.50
2022-09-18T10:58:17.715Z,5.35
2022-09-18T11:00:59.468Z,4.00
2022-09-18T11:03:30.763Z,12.35
2022-09-18T11:05:48.344Z,5.30
2022-09-18T11:07:57.039Z,6.43
2022-09-18T11:10:09.750Z,4.63
2022-09-18T11:12:21.207Z,7.05
2022-09-18T11:14:28.485Z,4.65
2022-09-18T11:16:50.122Z,12.82
2022-09-18T11:19:08.766Z,10.73
2022-09-18T11:21:21.476Z,8.90
2022-09-18T11:23:30.894Z,5.38
2022-09-18T11:25:43.074Z,6.50
2022-09-18T11:28:06.816Z,9.68
2022-09-18T11:30:25.780Z,13.85
2022-09-18T11:32:32.239Z,10.40
2022-09-18T11:34:54.598Z,11.73
2022-09-18T11:37:10.744Z,7.25
2022-09-18T11:39:39.844Z,17.17
2022-09-18T11:42:00.005Z,8.15
2022-09-18T11:44:18.368Z,6.10
2022-09-18T11:47:17.348Z,6.87
2022-09-18T11:49:46.033Z,5.57
2022-09-18T11:52:14.227Z,5.57
2022-09-18T11:54:58.711Z,5.50
2022-09-18T11:57:06.296Z,10.10
2022-09-18T11:59:40.799Z,8.55
2022-09-18T12:01:53.074Z,5.78
2022-09-18T12:04:28.389Z,8.38
2022-09-18T12:07:41.767Z,7.65
2022-09-18T12:10:12.980Z,5.35
2022-09-18T12:12:46.660Z,8.68
2022-09-18T12:15:06.384Z,8.65
2022-09-18T12:17:29.747Z,8.63
2022-09-18T12:19:58.972Z,6.05
2022-09-18T12:22:31.636Z,7.95
2022-09-18T12:24:40.465Z,6.45
2022-09-18T12:27:06.472Z,5.88
2022-09-18T12:29:43.214Z,5.90
2022-09-18T12:32:24.009Z,4.07
2022-09-18T12:34:57.020Z,6.18
2022-09-18T12:37:19.755Z,4.75
2022-09-18T12:39:50.474Z,5.18
2022-09-18T12:42:16.167Z,3.43
2022-09-18T12:44:50.388Z,3.17
2022-09-18T12:47:15.606Z,3.05
2022-09-18T12:49:53.160Z,2.95
2022-09-18T12:53:00.528Z,4.97
2022-09-18T12:55:58.505Z,3.92
2022-09-18T12:58:40.402Z,2.63
2022-09-18T13:00:58.548Z,2.63
2022-09-18T13:03:20.020Z,2.22
2022-09-18T13:05:38.283Z,2.53
2022-09-18T13:07:57.192Z,3.25
2022-09-18T13:10:29.800Z,2.85
2022-09-18T13:12:51.381Z,4.40
2022-09-18T13:15:01.717Z,5.25
2022-09-18T13:17:20.700Z,5.57
2022-09-18T13:19:32.263Z,2.85
2022-09-18T13:21:39.490Z,5.45
2022-09-18T13:23:44.392Z,4.47
2022-09-18T13:25:50.251Z,3.95
2022-09-18T13:27:55.565Z,3.70
2022-09-18T13:30:10.234Z,4.15
2022-09-18T13:32:46.625Z,3.72
2022-09-18T13:34:54.571Z,4.55
2022-09-18T13:37:05.858Z,4.88
2022-09-18T13:39:24.786Z,4.10
2022-09-18T13:41:30.581Z,5.72
2022-09-18T13:43:41.367Z,4.35
2022-09-18T13:45:46.726Z,6.35
2022-09-18T13:48:06.078Z,2.63
2022-09-18T13:50:17.995Z,5.45
2022-09-18T13:52:45.706Z,4.32
2022-09-18T13:55:29.525Z,4.25
2022-09-18T13:57:35.877Z,2.80
2022-09-18T14:00:02.757Z,4.57
2022-09-18T14:02:39.675Z,3.58
2022-09-18T14:04:53.164Z,3.10
2022-09-18T14:06:59.782Z,3.35
2022-09-18T14:09:05.963Z,5.75
2022-09-18T14:11:15.494Z,7.05
2022-09-18T14:13:56.997Z,3.95
2022-09-18T14:16:31.291Z,4.13
2022-09-18T14:18:57.504Z,3.10
2022-09-18T14:21:29.890Z,2.92
2022-09-18T14:23:59.581Z,4.25
2022-09-18T14:26:09.869Z,5.25
2022-09-18T14:28:29.967Z,4.90
2022-09-18T14:31:15.372Z,3.95
2022-09-18T14:33:23.913Z,5.97
2022-09-18T14:36:01.024Z,2.83
2022-09-18T14:38:33.553Z,6.18
2022-09-18T14:40:40.599Z,7.13
2022-09-18T14:42:48.955Z,6.13
2022-09-18T14:45:15.600Z,4.43
2022-09-18T14:47:27.321Z,4.38
2022-09-18T14:49:45.526Z,8.52
2022-09-18T14:52:03.468Z,5.80
2022-09-18T14:54:24.672Z,4.18
2022-09-18T14:56:39.125Z,6.07
2022-09-18T14:58:45.255Z,5.45
2022-09-18T15:00:56.154Z,6.60
2022-09-18T15:03:05.174Z,7.03
2022-09-18T15:05:12.738Z,7.25
2022-09-18T15:07:20.322Z,4.60
2022-09-18T15:09:34.300Z,3.63
2022-09-18T15:11:58.761Z,2.88
2022-09-18T15:14:06.072Z,5.22
2022-09-18T15:16:25.060Z,4.35
2022-09-18T15:18:30.459Z,8.15
2022-09-18T15:20:35.706Z,6.20
2022-09-18T15:22:44.326Z,7.40
2022-09-18T15:24:49.226Z,5.35
2022-09-18T15:26:56.354Z,7.57
2022-09-18T15:29:05.375Z,4.05
2022-09-18T15:31:11.535Z,6.60
2022-09-18T15:33:20.138Z,6.07
2022-09-18T15:35:30.525Z,5.20
2022-09-18T15:37:39.233Z,6.55
2022-09-18T15:40:18.508Z,5.35
2022-09-18T15:42:44.807Z,6.50
2022-09-18T15:45:11.305Z,3.95
2022-09-18T15:47:35.564Z,5.35
2022-09-18T15:49:43.774Z,9.10
2022-09-18T15:51:48.790Z,4.88
2022-09-18T15:54:28.618Z,5.60
2022-09-18T15:56:40.094Z,4.93
2022-09-18T15:58:52.478Z,5.45
2022-09-18T16:00:59.101Z,5.18
2022-09-18T16:03:06.720Z,4.32
2022-09-18T16:05:16.213Z,4.90
2022-09-18T16:07:25.941Z,3.67
2022-09-18T16:09:42.172Z,6.90
2022-09-18T16:11:48.311Z,5.90
2022-09-18T16:13:53.449Z,5.57
2022-09-18T16:16:19.629Z,5.32
2022-09-18T16:18:30.139Z,5.82
2022-09-18T16:20:42.299Z,5.50
2022-09-18T16:22:51.470Z,8.50
2022-09-18T16:24:57.862Z,4.88
2022-09-18T16:27:08.536Z,7.38
2022-09-18T16:29:25.443Z,8.05
2022-09-18T16:31:32.191Z,5.97
2022-09-18T16:33:36.747Z,5.03
2022-09-18T16:35:45.992Z,2.70
2022-09-18T16:37:50.641Z,3.90
2022-09-18T16:39:55.473Z,4.45
2022-09-18T16:42:04.257Z,6.22
2022-09-18T16:44:23.650Z,5.60
2022-09-18T16:46:30.796Z,4.47
2022-09-18T16:48:39.742Z,3.88
2022-09-18T16:50:44.629Z,4.10
2022-09-18T16:52:49.230Z,2.90
2022-09-18T16:54:55.547Z,5.03
2022-09-18T16:57:07.548Z,3.97
2022-09-18T16:59:19.221Z,3.92
2022-09-18T17:01:26.399Z,6.82
2022-09-18T17:03:30.939Z,4.65
2022-09-18T17:05:35.707Z,3.78
2022-09-18T17:07:45.726Z,3.35
2022-09-18T17:09:50.068Z,6.20
2022-09-18T17:11:55.315Z,6.68
2022-09-18T17:14:03.507Z,2.63
2022-09-18T17:16:08.036Z,4.07
2022-09-18T17:18:12.355Z,5.10
2022-09-18T17:20:20.826Z,4.15
2022-09-18T17:22:25.624Z,4.85
2022-09-18T17:24:29.861Z,3.47
2022-09-18T17:26:38.996Z,4.35
2022-09-18T17:28:43.850Z,4.38
2022-09-18T17:30:48.853Z,6.38
2022-09-18T17:32:57.356Z,5.40
2022-09-18T17:35:01.843Z,5.25
2022-09-18T17:37:06.707Z,4.95
2022-09-18T17:39:15.215Z,4.38
2022-09-18T17:41:20.429Z,3.35
2022-09-18T17:43:25.982Z,4.32
2022-09-18T17:45:35.474Z,3.97
2022-09-18T17:47:59.482Z,4.88
2022-09-18T17:50:09.823Z,5.88
2022-09-18T17:52:18.813Z,4.95
2022-09-18T17:54:23.885Z,3.28
2022-09-18T17:56:30.714Z,4.47
2022-09-18T17:58:46.249Z,2.67
2022-09-18T18:00:51.210Z,3.17
2022-09-18T18:02:57.208Z,2.97
2022-09-18T18:05:06.888Z,5.97
2022-09-18T18:07:13.462Z,4.85
2022-09-18T18:09:19.414Z,3.53
2022-09-18T18:11:32.681Z,3.20
2022-09-18T18:13:41.013Z,3.38
2022-09-18T18:15:46.059Z,4.25
2022-09-18T18:17:56.602Z,4.35
2022-09-18T18:20:02.192Z,8.07
2022-09-18T18:22:09.366Z,6.07
2022-09-18T18:24:26.285Z,3.85
2022-09-18T18:26:39.263Z,5.10
2022-09-18T18:28:51.238Z,4.35
2022-09-18T18:31:08.370Z,4.90
2022-09-18T18:33:13.670Z,6.57
2022-09-18T18:35:18.148Z,4.10
2022-09-18T18:37:27.526Z,11.32
2022-09-18T18:39:31.766Z,6.30
2022-09-18T18:41:36.065Z,7.75
2022-09-18T18:43:45.336Z,3.78
2022-09-18T18:45:57.593Z,2.97
2022-09-18T18:48:02.749Z,4.13
2022-09-18T18:50:17.202Z,7.35
2022-09-18T18:52:27.337Z,3.53
2022-09-18T18:54:32.252Z,5.63
2022-09-18T18:56:41.877Z,4.50
2022-09-18T18:58:48.260Z,4.07
2022-09-18T19:00:53.439Z,5.05
2022-09-18T19:03:00.202Z,4.22
2022-09-18T19:05:06.051Z,5.13
2022-09-18T19:07:10.576Z,5.43
2022-09-18T19:09:20.636Z,3.20
2022-09-18T19:11:25.301Z,5.32
2022-09-18T19:13:31.065Z,6.45
2022-09-18T19:15:39.746Z,6.15
2022-09-18T19:17:44.312Z,5.95
2022-09-18T19:19:51.767Z,8.68
2022-09-18T19:22:04.129Z,5.53
2022-09-18T19:24:11.293Z,5.00
2022-09-18T19:26:22.603Z,6.45
2022-09-18T19:28:31.734Z,7.82
2022-09-18T19:30:40.901Z,5.45
2022-09-18T19:32:45.547Z,5.90
2022-09-18T19:34:54.710Z,5.35
2022-09-18T19:37:00.278Z,8.98
2022-09-18T19:39:05.723Z,7.82
2022-09-18T19:41:36.117Z,6.82
2022-09-18T19:43:42.136Z,5.93
2022-09-18T19:45:48.578Z,6.35
2022-09-18T19:47:57.272Z,7.72
2022-09-18T19:50:02.627Z,3.63
2022-09-18T19:52:17.106Z,8.57
2022-09-18T19:54:29.134Z,8.68
2022-09-18T19:56:42.995Z,4.10
2022-09-18T19:58:52.728Z,5.82
2022-09-18T20:01:04.405Z,8.63
2022-09-18T20:03:09.195Z,4.38
2022-09-18T20:05:13.302Z,8.68
2022-09-18T20:07:22.708Z,7.03
2022-09-18T20:09:29.908Z,10.13
2022-09-18T20:11:34.470Z,6.15
2022-09-18T20:13:43.006Z,9.48
2022-09-18T20:15:47.788Z,7.85
2022-09-18T20:17:56.807Z,9.45
2022-09-18T20:20:13.364Z,9.90
2022-09-18T20:22:27.618Z,14.25
2022-09-18T20:24:34.599Z,8.15
2022-09-18T20:26:41.458Z,9.65
2022-09-18T20:28:48.563Z,169.18
2022-09-18T20:30:55.541Z,214.65
2022-09-18T20:33:05.069Z,304.13
2022-09-18T20:35:12.112Z,234.10
2022-09-18T20:37:20.220Z,154.05
2022-09-18T20:39:28.978Z,88.47
2022-09-18T20:41:33.901Z,65.45
2022-09-18T20:43:42.084Z,35.58
2022-09-18T20:45:51.173Z,23.80
2022-09-18T20:48:00.546Z,16.95
2022-09-18T20:50:09.495Z,11.48
2022-09-18T20:52:16.890Z,12.45
2022-09-18T20:54:23.852Z,6.25
2022-09-18T20:56:32.925Z,8.50
2022-09-18T20:58:42.291Z,7.18
2022-09-18T21:00:47.754Z,9.95
2022-09-18T21:02:54.420Z,25.35
2022-09-18T21:05:07.322Z,12.60
2022-09-18T21:07:14.517Z,56.58
2022-09-18T21:09:20.027Z,25.40
2022-09-18T21:11:27.711Z,15.27
2022-09-18T21:13:37.132Z,15.48
2022-09-18T21:15:50.069Z,12.75
2022-09-18T21:18:04.146Z,14.88
2022-09-18T21:20:10.546Z,13.48
2022-09-18T21:22:23.549Z,12.13
2022-09-18T21:24:52.023Z,10.60
2022-09-18T21:26:58.488Z,8.35
2022-09-18T21:29:27.530Z,7.95
2022-09-18T21:31:39.577Z,8.63
2022-09-18T21:33:44.135Z,10.23
2022-09-18T21:38:08.580Z,13.38
2022-09-18T21:40:15.624Z,14.82
2022-09-18T21:42:21.530Z,8.40
2022-09-18T21:44:32.879Z,9.63
2022-09-18T21:46:39.463Z,8.70
2022-09-18T21:48:49.299Z,8.90
2022-09-18T21:50:58.247Z,7.00
2022-09-18T21:53:03.022Z,10.48
2022-09-18T21:55:08.756Z,12.93
2022-09-18T21:57:19.818Z,21.98
2022-09-18T21:59:38.278Z,18.38
2022-09-18T22:01:58.152Z,14.57
2022-09-18T22:04:05.738Z,11.88
2022-09-18T22:06:14.385Z,7.88
2022-09-18T22:08:21.280Z,12.65
2022-09-18T22:10:32.103Z,12.48
2022-09-18T22:12:39.787Z,12.00
2022-09-18T22:14:44.737Z,10.98
2022-09-18T22:16:59.734Z,10.52
2022-09-18T22:19:04.335Z,8.88
2022-09-18T22:21:24.175Z,8.80
2022-09-18T22:23:34.233Z,8.10
2022-09-18T22:25:41.240Z,10.15
2022-09-18T22:27:47.841Z,9.25
2022-09-18T22:29:56.771Z,11.30
2022-09-18T22:32:07.792Z,10.77
2022-09-18T22:34:12.671Z,9.13
2022-09-18T22:36:23.285Z,7.38
2022-09-18T22:38:35.774Z,7.57
2022-09-18T22:40:42.647Z,8.20
2022-09-18T22:42:56.435Z,14.30
2022-09-18T22:45:02.440Z,9.55
2022-09-18T22:47:10.610Z,16.30
2022-09-18T22:49:18.750Z,15.63
2022-09-18T22:51:30.835Z,12.57
2022-09-18T22:53:36.928Z,15.70
2022-09-18T22:55:44.841Z,14.13
2022-09-18T22:57:51.478Z,14.95
2022-09-18T23:00:06.065Z,21.83
2022-09-18T23:02:35.205Z,16.48
2022-09-18T23:05:00.373Z,10.00
2022-09-18T23:07:14.986Z,10.80
2022-09-18T23:09:41.298Z,8.93
2022-09-18T23:11:59.780Z,11.55
2022-09-18T23:14:16.221Z,10.52
2022-09-18T23:16:29.906Z,13.50
2022-09-18T23:19:15.098Z,12.18
2022-09-18T23:21:21.594Z,11.32
2022-09-18T23:23:40.107Z,7.97
2022-09-18T23:25:44.603Z,9.82
2022-09-18T23:27:50.250Z,11.73
2022-09-18T23:29:58.955Z,10.50
2022-09-18T23:32:07.384Z,13.85
2022-09-18T23:34:18.501Z,12.50
2022-09-18T23:36:33.389Z,13.90
2022-09-18T23:38:48.049Z,13.93
2022-09-18T23:41:02.968Z,12.75
2022-09-18T23:43:24.831Z,14.90
2022-09-18T23:45:43.352Z,11.25
2022-09-18T23:47:56.329Z,10.68
2022-09-18T23:50:10.027Z,13.60
2022-09-18T23:54:44.011Z,10.48
2022-09-18T23:57:02.408Z,10.75
2022-09-18T23:59:08.537Z,8.60
